Time;durP1;ratioP1;P1;durP2;ratioP2;P2;SDS_P1;SDS_P2;PMS_P1;PMS_P2;Temp;Humidity;BMP_temperature;BMP_pressure;BME280_temperature;BME280_humidity;BME280_pressure;Samples;Min_cycle;Max_cycle;Signal;HPM_P1;HPM_P2
2022/09/14 00:01:37;;;;;;;3.88;1.42;;;27.70;51.80;;;;;;6293797;28;20075;-75
2022/09/14 00:04:42;;;;;;;2.53;1.40;;;27.70;52.00;;;;;;6289403;28;20095;-75
2022/09/14 00:07:43;;;;;;;6.13;1.60;;;27.80;52.40;;;;;;6273711;28;20377;-77
2022/09/14 00:10:45;;;;;;;3.58;1.45;;;27.60;52.60;;;;;;6292973;28;20033;-76
2022/09/14 00:13:46;;;;;;;1.80;1.30;;;27.50;52.60;;;;;;6276718;28;20414;-75
2022/09/14 00:16:48;;;;;;;3.92;1.40;;;27.50;52.80;;;;;;6292660;28;20028;-75
2022/09/14 00:19:49;;;;;;;1.60;1.40;;;27.50;52.90;;;;;;6293334;28;20086;-76
2022/09/14 00:22:50;;;;;;;2.25;1.50;;;27.40;53.10;;;;;;6294849;28;20075;-75
2022/09/14 00:25:51;;;;;;;6.32;1.58;;;27.40;53.20;;;;;;6293525;28;20036;-75
2022/09/14 00:28:55;;;;;;;4.30;1.55;;;27.30;53.10;;;;;;6294243;28;20756;-75
2022/09/14 00:31:57;;;;;;;6.82;1.52;;;27.40;53.00;;;;;;6299400;28;20060;-75
2022/09/14 00:34:58;;;;;;;2.17;1.50;;;27.40;52.70;;;;;;6294524;28;20487;-77
2022/09/14 00:37:59;;;;;;;2.08;1.30;;;27.40;52.30;;;;;;6299047;28;20045;-74
2022/09/14 00:41:02;;;;;;;2.55;1.45;;;27.40;52.40;;;;;;6300436;28;20401;-77
2022/09/14 00:44:26;;;;;;;4.18;1.50;;;27.40;52.50;;;;;;6287266;28;20060;-75
2022/09/14 00:47:29;;;;;;;7.85;1.42;;;27.40;52.50;;;;;;6299127;28;20102;-75
2022/09/14 00:50:31;;;;;;;6.00;1.95;;;27.40;52.50;;;;;;6299992;28;20119;-75
2022/09/14 00:53:33;;;;;;;2.03;1.50;;;27.40;52.50;;;;;;6298877;28;20036;-74
2022/09/14 00:56:34;;;;;;;3.20;1.50;;;27.40;52.50;;;;;;6293030;28;20094;-75
2022/09/14 00:59:38;;;;;;;3.15;1.60;;;27.40;52.50;;;;;;6285387;28;20052;-75
2022/09/14 01:02:39;;;;;;;7.10;1.50;;;27.40;52.50;;;;;;6267078;28;20457;-75
2022/09/14 01:06:10;;;;;;;6.95;1.58;;;27.40;52.40;;;;;;6300119;28;20177;-74
2022/09/14 01:09:28;;;;;;;7.53;2.08;;;27.40;52.50;;;;;;6281042;28;20041;-77
2022/09/14 01:13:01;;;;;;;4.60;1.48;;;27.40;52.40;;;;;;6266901;28;20482;-74
2022/09/14 01:16:20;;;;;;;2.72;1.60;;;27.30;52.40;;;;;;6282375;28;20066;-74
2022/09/14 01:19:39;;;;;;;3.95;1.45;;;27.30;52.70;;;;;;6288419;28;20036;-76
2022/09/14 01:23:12;;;;;;;10.10;2.03;;;27.30;53.00;;;;;;6284951;28;20024;-77
2022/09/14 01:26:38;;;;;;;4.13;1.60;;;27.20;53.20;;;;;;6273863;28;20036;-74
2022/09/14 01:29:50;;;;;;;6.68;1.75;;;27.20;53.40;;;;;;6290636;28;20036;-76
2022/09/14 01:33:08;;;;;;;4.35;1.70;;;27.20;53.60;;;;;;6288530;28;20036;-77
2022/09/14 01:36:11;;;;;;;;;;;27.10;53.40;;;;;;6291968;28;20039;-75
2022/09/14 01:39:13;;;;;;;3.55;1.45;;;27.20;53.00;;;;;;6286977;28;20010;-77
2022/09/14 01:42:19;;;;;;;3.53;1.73;;;27.10;52.40;;;;;;6272772;28;20032;-76
2022/09/14 01:45:22;;;;;;;3.10;1.50;;;27.10;52.30;;;;;;6286264;28;20052;-77
2022/09/14 01:48:37;;;;;;;5.10;1.77;;;27.00;52.10;;;;;;6290796;28;20124;-76
2022/09/14 01:51:45;;;;;;;1.98;1.40;;;27.00;51.90;;;;;;6282642;28;20039;-77
2022/09/14 01:54:55;;;;;;;4.25;1.40;;;27.00;51.90;;;;;;6256385;28;20091;-78
2022/09/14 01:58:15;;;;;;;8.18;1.95;;;26.90;51.80;;;;;;6273791;28;20426;-77
2022/09/14 02:01:24;;;;;;;5.03;2.00;;;26.90;51.80;;;;;;6273007;28;20052;-76
2022/09/14 02:04:38;;;;;;;3.58;1.60;;;26.90;51.70;;;;;;6265393;28;20108;-75
2022/09/14 02:07:39;;;;;;;2.45;1.45;;;26.90;51.80;;;;;;6278440;28;20047;-75
2022/09/14 02:10:40;;;;;;;9.27;1.80;;;26.90;51.70;;;;;;6276032;28;20099;-76
2022/09/14 02:13:41;;;;;;;2.70;1.70;;;26.90;51.70;;;;;;6277098;28;20203;-75
2022/09/14 02:16:44;;;;;;;3.78;2.00;;;26.80;51.80;;;;;;6270837;28;20362;-76
2022/09/14 02:19:58;;;;;;;7.95;1.95;;;26.80;51.80;;;;;;6276952;28;20126;-75
2022/09/14 02:23:03;;;;;;;3.05;1.60;;;26.80;52.00;;;;;;6293293;28;20036;-75
2022/09/14 02:26:05;;;;;;;4.70;1.75;;;26.70;51.90;;;;;;6273232;28;20389;-75
2022/09/14 02:29:06;;;;;;;10.48;2.00;;;26.70;52.00;;;;;;6272224;28;20080;-75
2022/09/14 02:32:53;;;;;;;5.63;2.05;;;26.70;52.10;;;;;;6267041;28;20036;-75
2022/09/14 02:36:00;;;;;;;3.85;1.83;;;26.60;52.40;;;;;;6213171;28;20104;-74
2022/09/14 02:39:25;;;;;;;5.63;2.00;;;26.60;52.40;;;;;;6187975;28;20050;-76
2022/09/14 02:42:49;;;;;;;3.15;1.55;;;26.50;52.40;;;;;;6179126;28;20109;-76
2022/09/14 02:45:59;;;;;;;2.33;1.50;;;26.50;52.40;;;;;;6170310;28;20034;-74
2022/09/14 02:49:19;;;;;;;8.23;2.13;;;26.50;52.50;;;;;;6207894;28;20486;-75
2022/09/14 02:52:51;;;;;;;6.55;1.95;;;26.40;52.50;;;;;;6194843;28;20050;-75
2022/09/14 02:55:59;;;;;;;5.18;2.00;;;26.40;52.80;;;;;;6207671;28;20416;-75
2022/09/14 02:59:00;;;;;;;6.70;2.05;;;26.40;52.80;;;;;;6211386;28;20103;-75
2022/09/14 03:02:01;;;;;;;4.93;1.70;;;26.40;52.90;;;;;;6206071;28;20034;-75
2022/09/14 03:05:04;;;;;;;2.03;1.70;;;26.40;52.90;;;;;;6183331;28;20658;-76
2022/09/14 03:08:05;;;;;;;2.28;1.60;;;26.40;53.00;;;;;;6197183;28;20041;-74
2022/09/14 03:11:06;;;;;;;3.92;1.70;;;26.40;53.00;;;;;;6213732;28;20041;-75
2022/09/14 03:14:09;;;;;;;6.60;2.05;;;26.30;52.90;;;;;;6272211;28;20028;-75
2022/09/14 03:17:10;;;;;;;5.50;2.10;;;26.40;53.00;;;;;;6271679;28;20043;-75
2022/09/14 03:20:13;;;;;;;4.20;1.80;;;26.40;53.00;;;;;;6293251;28;20028;-75
2022/09/14 03:23:14;;;;;;;5.05;2.03;;;26.40;53.00;;;;;;6292433;28;20115;-74
2022/09/14 03:26:17;;;;;;;3.35;1.88;;;26.40;53.10;;;;;;6285999;28;20097;-75
2022/09/14 03:29:18;;;;;;;4.05;2.10;;;26.40;53.30;;;;;;6267262;28;20036;-75
2022/09/14 03:32:19;;;;;;;9.13;1.85;;;26.30;53.30;;;;;;6267919;28;20041;-76
2022/09/14 03:35:21;;;;;;;7.25;1.58;;;26.30;53.50;;;;;;6262162;28;20042;-76
2022/09/14 03:38:23;;;;;;;2.75;1.67;;;26.20;53.60;;;;;;6275372;28;20124;-76
2022/09/14 03:41:24;;;;;;;3.55;1.70;;;26.20;53.80;;;;;;6272309;28;20033;-75
2022/09/14 03:44:25;;;;;;;3.53;1.90;;;26.20;54.10;;;;;;6273384;28;20040;-76
2022/09/14 03:47:27;;;;;;;3.55;1.73;;;26.10;54.20;;;;;;6290921;28;20131;-75
2022/09/14 03:50:28;;;;;;;7.60;1.92;;;26.10;54.30;;;;;;6274920;28;20043;-75
2022/09/14 03:53:29;;;;;;;4.95;2.08;;;26.10;54.50;;;;;;6293294;28;20033;-75
2022/09/14 03:56:30;;;;;;;5.03;2.35;;;26.10;54.70;;;;;;6264477;28;20032;-75
2022/09/14 03:59:31;;;;;;;3.55;1.98;;;26.10;55.10;;;;;;6290676;28;20051;-75
2022/09/14 04:02:32;;;;;;;6.18;2.30;;;26.10;55.40;;;;;;6287238;28;20051;-75
2022/09/14 04:05:33;;;;;;;6.20;2.00;;;26.10;55.50;;;;;;6253000;28;20389;-75
2022/09/14 04:08:36;;;;;;;4.72;2.08;;;26.10;55.70;;;;;;6266309;28;20047;-75
2022/09/14 04:11:37;;;;;;;2.58;1.90;;;26.10;55.80;;;;;;6252804;28;20084;-75
2022/09/14 04:14:40;;;;;;;8.18;1.80;;;26.10;55.90;;;;;;6250911;28;20033;-75
2022/09/14 04:17:41;;;;;;;6.45;1.70;;;26.10;55.90;;;;;;6273069;28;20032;-76
2022/09/14 04:20:42;;;;;;;2.15;1.35;;;26.10;55.90;;;;;;6296098;28;20327;-77
2022/09/14 04:23:43;;;;;;;7.03;1.95;;;26.10;55.90;;;;;;6295038;28;20093;-76
2022/09/14 04:26:45;;;;;;;7.07;2.20;;;26.10;55.70;;;;;;6277399;28;20032;-76
2022/09/14 04:29:49;;;;;;;6.07;1.85;;;26.10;55.50;;;;;;6294514;28;20029;-76
2022/09/14 04:32:53;;;;;;;4.50;1.80;;;26.10;55.40;;;;;;6295167;28;20131;-76
2022/09/14 04:35:58;;;;;;;4.50;2.10;;;26.10;55.20;;;;;;6292529;28;20135;-78
2022/09/14 04:39:01;;;;;;;6.38;1.67;;;26.10;55.20;;;;;;6267197;28;20050;-78
2022/09/14 04:42:03;;;;;;;6.70;1.80;;;26.10;55.20;;;;;;6271064;28;20036;-77
2022/09/14 04:45:05;;;;;;;4.72;1.95;;;26.10;55.20;;;;;;6256835;28;20033;-77
2022/09/14 04:48:06;;;;;;;3.67;2.22;;;26.10;55.40;;;;;;6278391;28;20037;-77
2022/09/14 04:51:22;;;;;;;9.55;2.42;;;25.90;55.80;;;;;;6266030;28;20096;-76
2022/09/14 04:54:23;;;;;;;6.25;1.80;;;25.80;56.40;;;;;;6267334;28;20125;-75
2022/09/14 04:57:24;;;;;;;6.07;2.13;;;25.80;56.50;;;;;;6262928;28;20052;-75
2022/09/14 05:00:26;;;;;;;19.52;2.47;;;25.70;56.70;;;;;;6244143;28;20044;-75
2022/09/14 05:03:27;;;;;;;5.63;1.88;;;25.70;57.10;;;;;;6274707;28;20033;-76
2022/09/14 05:06:31;;;;;;;4.40;2.35;;;25.80;57.30;;;;;;6275163;28;20095;-76
2022/09/14 05:09:32;;;;;;;8.82;2.22;;;25.80;57.30;;;;;;6263380;28;20029;-76
2022/09/14 05:12:33;;;;;;;2.20;1.92;;;25.80;57.60;;;;;;6272388;28;20465;-77
2022/09/14 05:15:35;;;;;;;6.88;2.30;;;25.80;57.90;;;;;;6286392;28;20029;-76
2022/09/14 05:18:36;;;;;;;7.90;2.63;;;25.80;57.80;;;;;;6279010;28;20460;-75
2022/09/14 05:21:37;;;;;;;7.22;2.47;;;25.80;57.80;;;;;;6295620;28;20483;-76
2022/09/14 05:24:38;;;;;;;9.20;2.45;;;25.80;57.80;;;;;;6297000;28;20029;-76
2022/09/14 05:27:40;;;;;;;7.65;2.25;;;25.80;57.80;;;;;;6289092;28;20033;-74
2022/09/14 05:30:41;;;;;;;9.38;2.50;;;25.80;57.90;;;;;;6261841;28;20033;-75
2022/09/14 05:33:42;;;;;;;6.95;2.60;;;25.70;58.00;;;;;;6261134;28;20061;-75
2022/09/14 05:36:44;;;;;;;8.52;2.65;;;25.70;58.00;;;;;;6270091;28;20037;-75
2022/09/14 05:39:45;;;;;;;7.50;2.92;;;25.70;58.20;;;;;;6248963;28;20478;-75
2022/09/14 05:42:46;;;;;;;8.93;2.28;;;25.70;58.30;;;;;;6250081;28;20109;-74
2022/09/14 05:45:48;;;;;;;5.55;2.35;;;25.60;58.80;;;;;;6270723;28;20449;-74
2022/09/14 05:48:50;;;;;;;13.35;2.40;;;25.60;58.30;;;;;;6295393;28;20033;-74
2022/09/14 05:51:51;;;;;;;12.90;2.63;;;25.50;58.50;;;;;;6293860;28;20047;-74
2022/09/14 05:54:52;;;;;;;11.35;2.38;;;25.50;58.90;;;;;;6274593;28;20112;-74
2022/09/14 05:57:53;;;;;;;5.63;2.30;;;25.40;59.30;;;;;;6244792;28;20041;-74
2022/09/14 06:00:54;;;;;;;6.50;2.38;;;25.30;59.70;;;;;;6274931;28;20086;-74
2022/09/14 06:03:59;;;;;;;8.32;3.05;;;25.30;60.10;;;;;;6238895;28;20029;-74
2022/09/14 06:07:00;;;;;;;4.25;1.70;;;25.20;60.40;;;;;;6246306;28;20061;-74
2022/09/14 06:10:01;;;;;;;6.93;1.77;;;25.10;60.50;;;;;;6263814;28;20484;-74
2022/09/14 06:13:02;;;;;;;6.28;2.38;;;25.00;60.80;;;;;;6261432;28;20047;-75
2022/09/14 06:16:08;;;;;;;5.00;1.80;;;24.90;61.20;;;;;;6261815;28;20064;-75
2022/09/14 06:19:10;;;;;;;8.68;2.28;;;24.80;61.70;;;;;;6251751;28;20073;-74
2022/09/14 06:22:11;;;;;;;8.13;2.42;;;24.80;62.00;;;;;;6243780;28;20049;-75
2022/09/14 06:25:12;;;;;;;6.50;2.42;;;24.80;62.40;;;;;;6245932;28;20668;-74
2022/09/14 06:28:13;;;;;;;7.35;2.55;;;24.80;62.50;;;;;;6267006;28;20044;-74
2022/09/14 06:31:16;;;;;;;8.02;2.83;;;24.80;62.80;;;;;;6268728;28;20518;-74
2022/09/14 06:34:17;;;;;;;7.72;2.50;;;24.80;63.10;;;;;;6273951;28;20044;-75
2022/09/14 06:37:18;;;;;;;3.90;2.67;;;24.70;63.10;;;;;;6291628;28;20037;-74
2022/09/14 06:40:19;;;;;;;16.30;3.15;;;24.70;63.50;;;;;;6291150;28;20369;-73
2022/09/14 06:43:20;;;;;;;10.50;3.08;;;24.70;63.70;;;;;;6290934;28;20564;-75
2022/09/14 06:46:24;;;;;;;9.32;2.67;;;24.70;63.90;;;;;;6290709;28;20416;-76
2022/09/14 06:49:26;;;;;;;18.75;3.90;;;24.70;64.10;;;;;;6278828;28;20079;-73
2022/09/14 06:52:27;;;;;;;10.43;3.40;;;24.70;64.30;;;;;;6292890;28;20123;-74
2022/09/14 06:55:28;;;;;;;7.30;3.30;;;24.70;64.60;;;;;;6295556;28;20465;-74
2022/09/14 06:58:29;;;;;;;7.38;3.13;;;24.60;64.70;;;;;;6276835;28;20157;-73
2022/09/14 07:01:30;;;;;;;12.77;3.53;;;24.60;64.90;;;;;;6294763;28;20154;-74
2022/09/14 07:04:31;;;;;;;12.50;3.22;;;24.70;65.00;;;;;;6293488;28;20044;-74
2022/09/14 07:07:32;;;;;;;9.02;3.08;;;24.70;65.30;;;;;;6293904;28;20033;-74
2022/09/14 07:10:33;;;;;;;8.90;2.97;;;24.70;65.40;;;;;;6294240;28;20502;-74
2022/09/14 07:13:34;;;;;;;12.27;3.47;;;24.60;65.70;;;;;;6295367;28;20461;-74
2022/09/14 07:16:37;;;;;;;9.63;3.05;;;24.60;65.90;;;;;;6294274;28;20040;-74
2022/09/14 07:19:38;;;;;;;9.85;3.38;;;24.60;66.00;;;;;;6302338;28;20370;-74
2022/09/14 07:22:39;;;;;;;7.68;3.40;;;24.60;66.10;;;;;;6295542;28;20112;-74
2022/09/14 07:25:41;;;;;;;9.40;3.60;;;24.50;66.40;;;;;;6293972;28;20136;-74
2022/09/14 07:28:43;;;;;;;15.95;3.63;;;24.60;66.50;;;;;;6293894;28;20052;-74
2022/09/14 07:31:47;;;;;;;10.43;3.60;;;24.60;66.50;;;;;;6292184;28;20029;-74
2022/09/14 07:34:48;;;;;;;5.97;2.90;;;24.60;66.40;;;;;;6292831;28;20029;-74
2022/09/14 07:37:51;;;;;;;5.97;2.67;;;24.60;66.40;;;;;;6268030;28;20061;-74
2022/09/14 07:40:56;;;;;;;7.57;3.20;;;24.60;67.10;;;;;;6297606;28;20119;-74
2022/09/14 07:43:59;;;;;;;11.13;3.97;;;24.60;66.70;;;;;;6271867;28;20432;-74
2022/09/14 07:47:01;;;;;;;11.18;4.60;;;24.70;66.90;;;;;;6254749;28;20052;-75
2022/09/14 07:50:02;;;;;;;20.73;6.90;;;24.70;66.80;;;;;;6273360;28;20033;-74
2022/09/14 07:53:03;;;;;;;13.52;5.05;;;24.70;66.60;;;;;;6257493;28;20044;-74
2022/09/14 07:56:06;;;;;;;10.95;4.00;;;24.80;66.50;;;;;;6269981;28;20343;-74
2022/09/14 07:59:10;;;;;;;8.70;3.90;;;24.80;66.20;;;;;;6301105;28;20032;-75
2022/09/14 08:02:11;;;;;;;9.70;3.70;;;24.80;66.30;;;;;;6290795;28;20135;-75
2022/09/14 08:05:13;;;;;;;11.07;4.43;;;24.80;66.30;;;;;;6268367;28;20032;-74
2022/09/14 08:08:15;;;;;;;13.30;4.72;;;24.70;66.70;;;;;;6287457;28;20076;-74
2022/09/14 08:11:21;;;;;;;7.53;3.70;;;24.60;67.20;;;;;;6275216;28;20066;-74
2022/09/14 08:14:22;;;;;;;8.27;2.75;;;24.50;67.70;;;;;;6291483;28;20032;-74
2022/09/14 08:17:23;;;;;;;10.38;3.55;;;24.40;67.70;;;;;;6253346;28;20040;-74
2022/09/14 08:20:24;;;;;;;12.02;2.35;;;24.30;67.30;;;;;;6248989;28;20454;-75
2022/09/14 08:23:25;;;;;;;9.30;2.65;;;24.40;66.80;;;;;;6250362;28;20470;-74
2022/09/14 08:26:30;;;;;;;9.68;3.15;;;24.40;66.30;;;;;;6263158;28;20114;-75
2022/09/14 08:29:31;;;;;;;12.85;4.85;;;24.50;65.90;;;;;;6272547;28;20462;-76
2022/09/14 08:32:32;;;;;;;14.35;3.80;;;24.70;65.60;;;;;;6253621;28;20033;-75
2022/09/14 08:35:33;;;;;;;8.90;3.55;;;24.80;65.60;;;;;;6250508;28;20336;-74
2022/09/14 08:38:34;;;;;;;10.90;3.60;;;25.00;65.10;;;;;;6257569;28;20429;-74
2022/09/14 08:41:45;;;;;;;8.32;3.25;;;25.10;64.70;;;;;;6266501;28;20041;-76
2022/09/14 08:44:50;;;;;;;11.07;3.67;;;25.30;64.50;;;;;;6299144;28;20028;-74
2022/09/14 08:47:52;;;;;;;10.10;4.43;;;25.40;64.20;;;;;;6300417;28;20143;-75
2022/09/14 08:50:54;;;;;;;18.77;7.05;;;25.50;63.90;;;;;;6298942;28;20036;-75
2022/09/14 08:53:58;;;;;;;19.95;8.00;;;25.50;63.70;;;;;;6299414;28;20449;-75
2022/09/14 08:57:26;;;;;;;13.77;4.15;;;25.60;63.70;;;;;;6300362;28;20040;-75
2022/09/14 09:00:40;;;;;;;12.90;6.88;;;25.70;63.80;;;;;;6298656;28;20098;-75
2022/09/14 09:04:06;;;;;;;13.48;4.57;;;25.70;63.60;;;;;;6277344;28;20429;-75
2022/09/14 09:07:41;;;;;;;22.27;9.48;;;25.70;63.50;;;;;;6260668;28;20097;-75
2022/09/14 09:10:42;;;;;;;12.32;4.78;;;25.70;63.30;;;;;;6296839;28;20094;-74
2022/09/14 09:13:45;;;;;;;20.23;8.00;;;25.80;63.00;;;;;;6274006;28;20064;-74
2022/09/14 09:16:52;;;;;;;9.68;3.80;;;25.90;62.60;;;;;;6249155;28;20112;-74
2022/09/14 09:19:58;;;;;;;11.23;2.97;;;25.90;62.20;;;;;;6297892;28;20039;-74
2022/09/14 09:23:15;;;;;;;14.00;3.15;;;25.90;61.70;;;;;;6280335;28;20037;-74
2022/09/14 09:26:27;;;;;;;7.60;3.03;;;25.90;62.40;;;;;;6264056;28;20041;-74
2022/09/14 09:29:28;;;;;;;10.50;3.25;;;26.00;61.80;;;;;;6249377;28;20040;-74
2022/09/14 09:32:44;;;;;;;24.65;8.50;;;26.00;61.70;;;;;;6253133;28;20029;-74
2022/09/14 09:35:53;;;;;;;17.75;6.18;;;26.10;61.80;;;;;;6247826;28;20461;-74
2022/09/14 09:38:58;;;;;;;15.93;5.53;;;26.10;62.10;;;;;;6287181;28;20119;-74
2022/09/14 09:42:12;;;;;;;18.85;7.22;;;26.10;62.10;;;;;;6265025;28;20530;-76
2022/09/14 09:45:13;;;;;;;9.95;2.95;;;26.20;61.60;;;;;;6287578;28;20040;-75
2022/09/14 09:48:17;;;;;;;8.52;3.00;;;26.40;61.00;;;;;;6294314;28;20040;-74
2022/09/14 09:51:28;;;;;;;13.73;3.35;;;26.60;60.10;;;;;;6295680;28;20475;-76
2022/09/14 09:54:32;;;;;;;10.90;4.20;;;26.70;59.70;;;;;;6273506;28;20048;-73
2022/09/14 09:57:35;;;;;;;15.68;6.47;;;26.90;59.80;;;;;;6269686;28;20025;-74
2022/09/14 10:00:36;;;;;;;25.65;8.65;;;27.10;60.50;;;;;;6259996;28;20472;-74
2022/09/14 10:03:39;;;;;;;20.77;5.55;;;27.30;59.20;;;;;;6284314;28;20060;-75
2022/09/14 10:06:42;;;;;;;13.45;4.20;;;27.40;59.00;;;;;;6245789;28;20062;-74
2022/09/14 10:10:15;;;;;;;11.65;4.10;;;27.50;58.50;;;;;;6278026;28;20378;-74
2022/09/14 10:13:34;;;;;;;18.45;7.20;;;27.70;58.00;;;;;;6257151;28;20040;-76
2022/09/14 10:16:39;;;;;;;19.45;7.28;;;27.80;57.20;;;;;;6271812;28;20051;-76
2022/09/14 10:19:45;;;;;;;15.45;5.47;;;27.90;56.80;;;;;;6273569;28;20041;-75
2022/09/14 10:22:46;;;;;;;13.30;4.95;;;28.00;56.50;;;;;;6259320;28;20045;-76
2022/09/14 10:25:52;;;;;;;10.90;4.20;;;28.10;56.20;;;;;;6287932;28;20061;-76
2022/09/14 10:29:13;;;;;;;11.45;4.20;;;28.20;55.70;;;;;;6265157;28;20358;-76
2022/09/14 10:32:23;;;;;;;17.92;6.03;;;28.30;55.40;;;;;;6261171;28;20076;-76
2022/09/14 10:35:42;;;;;;;13.98;4.03;;;28.40;55.20;;;;;;6249101;28;20036;-78
2022/09/14 10:38:57;;;;;;;8.63;2.88;;;28.60;55.00;;;;;;6240892;28;20049;-74
2022/09/14 10:42:26;;;;;;;10.02;2.88;;;28.70;54.60;;;;;;6266576;28;20041;-75
2022/09/14 10:45:39;;;;;;;7.57;2.30;;;28.70;54.40;;;;;;6243654;28;20042;-75
2022/09/14 10:48:53;;;;;;;10.75;3.00;;;28.80;54.10;;;;;;6267974;28;20468;-75
2022/09/14 10:52:09;;;;;;;13.50;5.30;;;28.90;53.50;;;;;;6259556;28;20409;-75
2022/09/14 10:55:34;;;;;;;9.48;2.78;;;28.90;53.10;;;;;;6272610;28;20037;-75
2022/09/14 10:58:52;;;;;;;7.90;1.90;;;29.00;52.70;;;;;;6238801;28;20021;-76
2022/09/14 11:02:17;;;;;;;12.48;3.22;;;29.10;52.20;;;;;;6242985;28;20033;-75
2022/09/14 11:05:35;;;;;;;11.35;3.47;;;29.20;51.90;;;;;;6262462;28;20392;-77
2022/09/14 11:08:48;;;;;;;8.50;2.22;;;29.20;51.50;;;;;;6250246;28;20029;-75
2022/09/14 11:12:06;;;;;;;4.15;2.00;;;29.10;50.00;;;;;;6252351;28;20529;-75
2022/09/14 11:15:26;;;;;;;9.73;3.22;;;29.10;49.60;;;;;;6253181;28;20390;-75
2022/09/14 11:19:26;;;;;;;15.98;6.38;;;29.20;49.60;;;;;;6267798;28;20349;-76
2022/09/14 11:23:11;;;;;;;5.50;2.60;;;29.20;49.90;;;;;;6199014;28;20088;-75
2022/09/14 11:26:21;;;;;;;7.72;2.00;;;29.30;49.90;;;;;;6194579;28;20045;-75
2022/09/14 11:29:37;;;;;;;8.77;2.10;;;29.30;49.80;;;;;;6185363;28;20046;-76
2022/09/14 11:32:41;;;;;;;4.78;1.38;;;29.50;49.20;;;;;;6215109;28;20037;-75
2022/09/14 11:35:47;;;;;;;6.70;1.50;;;29.60;48.50;;;;;;6200851;28;20037;-76
2022/09/14 11:38:55;;;;;;;5.90;1.33;;;29.80;46.80;;;;;;6211480;28;20418;-76
2022/09/14 11:42:04;;;;;;;4.57;1.50;;;30.10;43.90;;;;;;6214814;28;20030;-76
2022/09/14 11:45:28;;;;;;;3.35;1.20;;;30.50;42.80;;;;;;6197764;28;20536;-75
2022/09/14 11:48:41;;;;;;;6.22;1.48;;;30.70;40.70;;;;;;6227482;28;20343;-77
2022/09/14 11:52:10;;;;;;;10.43;1.80;;;31.00;39.10;;;;;;6213562;28;20145;-75
2022/09/14 11:55:16;;;;;;;3.00;1.08;;;31.20;38.00;;;;;;6205994;28;20159;-76
2022/09/14 11:58:23;;;;;;;6.85;1.60;;;31.40;36.60;;;;;;6214179;28;20085;-78
2022/09/14 12:01:36;;;;;;;2.80;1.23;;;31.50;36.80;;;;;;6257990;28;20560;-75
2022/09/14 12:05:03;;;;;;;6.63;1.42;;;31.70;36.70;;;;;;6276082;28;20025;-76
2022/09/14 12:08:36;;;;;;;7.72;1.73;;;31.90;36.10;;;;;;6266282;28;20071;-77
2022/09/14 12:11:37;;;;;;;3.10;1.65;;;32.00;36.00;;;;;;6264312;28;20385;-77
2022/09/14 12:14:42;;;;;;;8.40;1.48;;;32.20;35.90;;;;;;6291094;28;20040;-76
2022/09/14 12:17:44;;;;;;;7.47;2.00;;;32.10;35.10;;;;;;6264490;28;20036;-76
2022/09/14 12:21:18;;;;;;;3.67;1.55;;;32.20;35.00;;;;;;6285327;28;20056;-77
2022/09/14 12:24:22;;;;;;;9.90;1.90;;;32.20;34.90;;;;;;6286733;28;20086;-75
2022/09/14 12:27:23;;;;;;;7.95;2.65;;;32.30;35.00;;;;;;6291305;28;20044;-76
2022/09/14 12:30:40;;;;;;;5.78;1.50;;;32.40;34.60;;;;;;6291419;28;20123;-75
2022/09/14 12:33:44;;;;;;;4.63;1.95;;;32.40;34.00;;;;;;6273606;28;20468;-76
2022/09/14 12:36:47;;;;;;;5.05;1.50;;;32.60;33.70;;;;;;6273279;28;20046;-74
2022/09/14 12:40:30;;;;;;;3.50;1.80;;;32.80;32.40;;;;;;6289881;28;20440;-78
2022/09/14 12:43:32;;;;;;;4.85;2.15;;;33.10;31.60;;;;;;6255257;28;20029;-76
2022/09/14 12:46:37;;;;;;;6.28;2.20;;;33.30;31.20;;;;;;6271078;28;20090;-76
2022/09/14 12:49:39;;;;;;;17.38;6.15;;;33.50;30.30;;;;;;6266821;28;20025;-76
2022/09/14 12:53:04;;;;;;;4.90;2.30;;;33.70;30.60;;;;;;6268639;28;20037;-75
2022/09/14 12:56:15;;;;;;;7.18;2.38;;;33.80;30.90;;;;;;6233981;28;20032;-75
2022/09/14 12:59:40;;;;;;;8.20;1.65;;;33.80;30.70;;;;;;6274935;28;20033;-75
2022/09/14 13:03:25;;;;;;;7.65;2.10;;;33.90;30.00;;;;;;6265002;28;20465;-75
2022/09/14 13:06:43;;;;;;;7.68;2.10;;;34.00;30.00;;;;;;6242987;28;20048;-75
2022/09/14 13:09:48;;;;;;;13.50;4.07;;;34.30;29.60;;;;;;6265441;28;20173;-75
2022/09/14 13:12:50;;;;;;;4.20;1.67;;;34.60;29.10;;;;;;6279658;28;20075;-76
2022/09/14 13:16:01;;;;;;;4.72;1.60;;;34.90;29.10;;;;;;6253584;28;20037;-77
2022/09/14 13:19:05;;;;;;;10.63;4.95;;;34.90;28.20;;;;;;6263129;28;20353;-75
2022/09/14 13:22:18;;;;;;;6.60;2.05;;;34.70;28.30;;;;;;6284377;28;20045;-76
2022/09/14 13:25:33;;;;;;;5.75;1.83;;;34.50;28.60;;;;;;6274885;28;20036;-76
2022/09/14 13:28:35;;;;;;;4.25;1.55;;;34.30;28.70;;;;;;6278675;28;20037;-75
2022/09/14 13:31:38;;;;;;;2.85;1.30;;;34.20;28.90;;;;;;6268583;28;20108;-75
2022/09/14 13:34:39;;;;;;;2.42;1.08;;;34.20;28.90;;;;;;6271574;28;20025;-75
2022/09/14 13:37:40;;;;;;;7.22;1.60;;;34.20;28.60;;;;;;6285576;28;20041;-75
2022/09/14 13:40:42;;;;;;;6.18;1.48;;;34.20;28.60;;;;;;6291633;28;20169;-75
2022/09/14 13:43:46;;;;;;;3.45;1.38;;;34.20;28.60;;;;;;6282518;28;20016;-75
2022/09/14 13:46:47;;;;;;;3.97;1.73;;;34.10;28.60;;;;;;6266178;28;20691;-75
2022/09/14 13:49:51;;;;;;;2.75;1.45;;;34.00;28.70;;;;;;6284884;28;20101;-75
2022/09/14 13:52:54;;;;;;;6.07;1.67;;;33.80;28.80;;;;;;6259966;28;20744;-77
2022/09/14 13:55:55;;;;;;;4.28;2.15;;;33.80;28.70;;;;;;6244009;28;20045;-77
2022/09/14 13:59:09;;;;;;;7.82;2.97;;;33.80;29.50;;;;;;6269322;28;20094;-77
2022/09/14 14:02:12;;;;;;;4.20;1.33;;;33.80;29.10;;;;;;6243957;28;20028;-77
2022/09/14 14:05:27;;;;;;;3.75;1.40;;;33.70;29.00;;;;;;6265610;28;20041;-77
2022/09/14 17:07:22;;;;;;;6.00;2.30;;;30.70;32.90;;;;;;7346812;23;20022;-75
2022/09/14 17:10:23;;;;;;;11.23;2.63;;;30.60;33.00;;;;;;6173656;28;20348;-75
2022/09/14 17:13:26;;;;;;;7.13;1.92;;;30.60;33.00;;;;;;6182517;28;20057;-77
2022/09/14 17:16:30;;;;;;;11.23;2.20;;;30.60;33.10;;;;;;6180317;28;20095;-78
2022/09/14 17:19:32;;;;;;;9.10;2.20;;;30.50;33.20;;;;;;6186743;28;20085;-77
2022/09/14 17:22:34;;;;;;;7.53;2.30;;;30.50;33.40;;;;;;6166517;28;20034;-76
2022/09/14 17:25:35;;;;;;;10.02;2.88;;;30.40;33.40;;;;;;6167958;28;20043;-77
2022/09/14 17:28:37;;;;;;;8.52;2.58;;;30.40;33.60;;;;;;6173113;28;20031;-76
2022/09/14 17:31:40;;;;;;;13.85;3.15;;;30.30;33.60;;;;;;6166359;28;20034;-76
2022/09/14 17:34:41;;;;;;;12.85;2.25;;;30.30;33.70;;;;;;6164947;28;20069;-76
2022/09/14 17:37:42;;;;;;;8.38;2.17;;;30.30;33.80;;;;;;6191932;28;20031;-76
2022/09/14 17:40:44;;;;;;;9.77;2.25;;;30.30;33.90;;;;;;6174515;28;20045;-79
2022/09/14 17:43:54;;;;;;;13.27;2.63;;;30.30;34.00;;;;;;6173274;28;20073;-76
2022/09/14 17:46:55;;;;;;;8.10;2.13;;;30.30;34.10;;;;;;6181486;28;20129;-77
2022/09/14 17:49:56;;;;;;;8.88;2.40;;;30.30;34.30;;;;;;6211396;28;20054;-76
2022/09/14 17:52:57;;;;;;;13.40;2.92;;;30.20;34.30;;;;;;6178450;28;20430;-76
2022/09/14 17:56:05;;;;;;;10.75;2.53;;;30.20;34.40;;;;;;6169934;28;20089;-76
2022/09/14 17:59:10;;;;;;;11.77;1.92;;;30.20;34.60;;;;;;6194626;28;20043;-76
2022/09/14 18:02:11;;;;;;;15.23;2.60;;;30.10;34.60;;;;;;6155506;28;20035;-77
2022/09/14 18:05:13;;;;;;;13.85;2.28;;;30.10;34.70;;;;;;6170820;28;20419;-75
2022/09/14 18:08:14;;;;;;;8.48;2.38;;;30.10;34.80;;;;;;6171202;28;20088;-76
2022/09/14 18:11:16;;;;;;;6.88;2.03;;;30.10;34.90;;;;;;6171996;28;20038;-77
2022/09/14 18:14:17;;;;;;;11.13;2.80;;;30.10;34.90;;;;;;6169979;28;20030;-77
2022/09/14 18:17:18;;;;;;;8.98;1.77;;;30.10;35.00;;;;;;6168150;28;20035;-77
2022/09/14 18:20:19;;;;;;;9.23;2.33;;;30.10;35.00;;;;;;6183445;28;20038;-77
2022/09/14 18:23:20;;;;;;;12.73;2.42;;;30.10;35.10;;;;;;6190303;28;20057;-77
2022/09/14 18:26:23;;;;;;;6.50;2.10;;;30.10;35.90;;;;;;6178173;28;20043;-77
2022/09/14 18:29:26;;;;;;;9.55;2.15;;;30.00;35.40;;;;;;6170341;28;22730;-77
2022/09/14 18:32:27;;;;;;;11.13;2.55;;;30.00;35.40;;;;;;6165732;28;20088;-77
2022/09/14 18:35:28;;;;;;;8.75;2.80;;;30.00;35.50;;;;;;6178489;28;20035;-77
2022/09/14 18:38:29;;;;;;;10.60;2.38;;;30.00;35.50;;;;;;6172231;28;20042;-79
2022/09/14 18:41:32;;;;;;;12.75;2.70;;;30.00;35.50;;;;;;6169270;28;20034;-80
2022/09/14 18:44:33;;;;;;;7.53;1.88;;;29.90;35.20;;;;;;6172003;28;20031;-80
2022/09/14 18:47:34;;;;;;;9.38;2.35;;;30.00;35.10;;;;;;6171268;28;20054;-79
2022/09/14 18:50:37;;;;;;;5.32;1.48;;;30.00;35.00;;;;;;6172194;28;20090;-77
2022/09/14 18:53:39;;;;;;;8.65;2.33;;;30.00;34.90;;;;;;6172084;28;20042;-78
2022/09/14 18:56:40;;;;;;;16.00;2.42;;;30.10;35.00;;;;;;6172299;28;20378;-78
2022/09/14 18:59:41;;;;;;;11.70;2.30;;;30.10;35.00;;;;;;6184601;28;20046;-78
2022/09/14 19:02:42;;;;;;;8.52;1.80;;;30.10;35.20;;;;;;6170663;28;20094;-78
2022/09/14 19:05:43;;;;;;;13.18;2.08;;;30.10;35.20;;;;;;6167867;28;20575;-78